Time;durP1;ratioP1;P1;durP2;ratioP2;P2;SDS_P1;SDS_P2;PMS_P1;PMS_P2;Temp;Humidity;BMP_temperature;BMP_pressure;BME280_temperature;BME280_humidity;BME280_pressure;Samples;Min_cycle;Max_cycle;Signal;HPM_P1;HPM_P2
2022/08/25 00:00:49;;;;;;;10.73;4.25;;;;;;;22.17;98.34;98916.75;4932193;29;20215;-66
2022/08/25 00:03:17;;;;;;;8.48;4.28;;;;;;;22.13;98.59;98902.44;4932120;29;20200;-66
2022/08/25 00:05:43;;;;;;;8.40;4.25;;;;;;;22.12;98.85;98900.84;4931779;29;20223;-66
2022/08/25 00:08:10;;;;;;;7.55;4.13;;;;;;;22.11;98.90;98905.25;4933979;29;20255;-66
2022/08/25 00:10:39;;;;;;;8.57;4.30;;;;;;;22.05;98.78;98899.97;4935993;29;20227;-66
2022/08/25 00:13:08;;;;;;;9.70;4.45;;;;;;;22.07;98.69;98898.00;4935889;29;20203;-66
2022/08/25 00:15:35;;;;;;;9.38;4.22;;;;;;;22.05;99.02;98887.78;4935776;29;20227;-66
2022/08/25 00:18:02;;;;;;;7.17;4.23;;;;;;;22.06;98.80;98883.38;4935797;29;20202;-66
2022/08/25 00:20:30;;;;;;;6.43;4.70;;;;;;;22.03;99.11;98896.78;4936040;29;20223;-65
2022/08/25 00:22:57;;;;;;;7.85;4.28;;;;;;;22.02;98.83;98893.38;4935849;29;20218;-66
2022/08/25 00:25:24;;;;;;;8.25;4.57;;;;;;;22.02;99.20;98895.16;4935894;29;20704;-65
2022/08/25 00:27:51;;;;;;;9.65;4.38;;;;;;;21.98;98.91;98896.53;4935640;29;20401;-67
2022/08/25 00:30:20;;;;;;;8.02;4.55;;;;;;;21.96;98.81;98890.69;4935391;29;20729;-66
2022/08/25 00:32:47;;;;;;;8.70;4.50;;;;;;;21.96;98.90;98901.13;4935637;29;20207;-66
2022/08/25 00:35:14;;;;;;;8.10;4.80;;;;;;;21.93;99.60;98895.31;4935694;29;20310;-66
2022/08/25 00:37:41;;;;;;;6.30;4.32;;;;;;;21.95;99.14;98899.53;4935505;29;20282;-66
2022/08/25 00:40:09;;;;;;;7.47;4.28;;;;;;;21.96;99.22;98895.91;4935310;29;20623;-66
2022/08/25 00:42:37;;;;;;;11.00;4.82;;;;;;;21.94;98.97;98898.72;4935542;29;20211;-66
2022/08/25 00:45:05;;;;;;;6.72;3.95;;;;;;;21.93;98.87;98884.06;4935406;29;20235;-66
2022/08/25 00:47:34;;;;;;;5.80;4.18;;;;;;;21.86;99.27;98886.63;4935219;29;20199;-66
2022/08/25 00:50:03;;;;;;;7.70;4.20;;;;;;;21.80;99.69;98882.19;4935166;29;20652;-66
2022/08/25 00:52:34;;;;;;;7.85;4.70;;;;;;;21.79;100.00;98874.59;4935493;29;20207;-66
2022/08/25 00:55:05;;;;;;;7.55;4.50;;;;;;;21.82;100.00;98877.59;4935131;29;20235;-65
2022/08/25 00:57:34;;;;;;;10.63;4.93;;;;;;;21.78;99.94;98873.75;4935148;29;20215;-66
2022/08/25 01:00:07;;;;;;;7.87;5.00;;;;;;;21.78;99.97;98873.75;4935208;29;20246;-66
2022/08/25 01:02:35;;;;;;;8.82;4.30;;;;;;;21.79;99.42;98864.16;4935150;29;20693;-66
2022/08/25 01:05:02;;;;;;;6.18;3.95;;;;;;;21.76;99.74;98864.53;4935066;29;20241;-66
2022/08/25 01:07:29;;;;;;;9.50;4.53;;;;;;;21.73;100.00;98860.53;4934853;29;20210;-66
2022/08/25 01:09:56;;;;;;;7.80;4.67;;;;;;;21.73;100.00;98865.72;4935314;29;20595;-66
2022/08/25 01:12:23;;;;;;;8.90;4.47;;;;;;;21.70;100.00;98866.09;4934757;29;20204;-66
2022/08/25 01:14:51;;;;;;;7.07;4.40;;;;;;;21.68;99.83;98868.88;4934726;29;20502;-66
2022/08/25 01:17:19;;;;;;;7.83;4.40;;;;;;;21.64;99.78;98862.44;4934745;29;20214;-66
2022/08/25 01:19:47;;;;;;;7.37;4.60;;;;;;;21.62;99.87;98861.81;4934149;29;20265;-66
2022/08/25 01:22:16;;;;;;;7.63;4.27;;;;;;;21.54;100.00;98866.34;4934658;29;20204;-66
2022/08/25 01:24:47;;;;;;;10.17;4.50;;;;;;;21.52;100.00;98863.13;4934749;29;20206;-66
2022/08/25 01:27:14;;;;;;;7.07;4.63;;;;;;;21.51;100.00;98866.72;4934644;29;20207;-66
2022/08/25 01:29:41;;;;;;;8.00;4.35;;;;;;;21.54;100.00;98868.94;4934425;29;20249;-66
2022/08/25 01:32:12;;;;;;;9.23;4.23;;;;;;;21.51;100.00;98871.94;4934530;29;20677;-66
2022/08/25 01:34:43;;;;;;;5.57;3.70;;;;;;;21.45;100.00;98874.28;4934542;29;20206;-66
2022/08/25 01:37:11;;;;;;;7.60;3.90;;;;;;;21.42;100.00;98876.44;4934532;29;20218;-66
2022/08/25 01:39:39;;;;;;;6.43;4.17;;;;;;;21.43;100.00;98880.66;4934878;29;20211;-66
2022/08/25 01:42:23;;;;;;;7.57;4.27;;;;;;;21.42;100.00;98879.84;4934561;29;20222;-66
2022/08/25 01:44:51;;;;;;;6.17;4.00;;;;;;;21.40;100.00;98881.81;4934681;29;20692;-65
2022/08/25 01:47:18;;;;;;;8.37;4.93;;;;;;;21.41;100.00;98875.66;4934250;29;20207;-66
2022/08/25 01:49:44;;;;;;;9.43;4.13;;;;;;;21.39;100.00;98869.81;4934246;29;20242;-66
2022/08/25 01:52:19;;;;;;;6.77;4.10;;;;;;;21.38;100.00;98873.44;4934214;29;20215;-66
2022/08/25 01:54:47;;;;;;;7.23;4.33;;;;;;;21.36;100.00;98870.19;4934257;29;20210;-66
2022/08/25 01:57:14;;;;;;;6.57;4.30;;;;;;;21.36;100.00;98878.00;4934248;29;20211;-66
2022/08/25 01:59:41;;;;;;;6.23;4.10;;;;;;;21.32;100.00;98863.75;4934387;29;20207;-66
2022/08/25 02:02:08;;;;;;;8.17;4.33;;;;;;;21.25;100.00;98862.84;4934027;29;20200;-66
2022/08/25 02:04:35;;;;;;;7.00;4.17;;;;;;;21.18;100.00;98867.19;4934017;29;20213;-66
2022/08/25 02:07:05;;;;;;;7.50;4.30;;;;;;;21.20;100.00;98860.78;4934068;29;20223;-65
2022/08/25 02:09:33;;;;;;;7.63;4.53;;;;;;;21.23;100.00;98854.41;4934023;29;20337;-66
2022/08/25 02:12:01;;;;;;;8.13;4.60;;;;;;;21.21;100.00;98856.41;4933815;29;20202;-66
2022/08/25 02:14:28;;;;;;;6.37;3.83;;;;;;;21.13;100.00;98853.94;4933729;29;20209;-66
2022/08/25 02:16:56;;;;;;;9.70;4.87;;;;;;;21.05;100.00;98857.44;4933828;29;20591;-66
2022/08/25 02:19:24;;;;;;;9.37;4.20;;;;;;;21.00;100.00;98855.41;4933601;29;20222;-65
2022/08/25 02:21:51;;;;;;;8.93;4.40;;;;;;;21.02;100.00;98853.41;4933568;29;20222;-65
2022/08/25 02:24:18;;;;;;;10.10;4.53;;;;;;;20.96;100.00;98855.94;4933651;29;20221;-64
2022/08/25 02:26:46;;;;;;;7.97;4.40;;;;;;;20.92;100.00;98858.13;4933394;29;20230;-66
2022/08/25 02:29:15;;;;;;;9.60;4.87;;;;;;;20.93;100.00;98862.31;4933470;29;20245;-65
2022/08/25 02:31:42;;;;;;;7.77;4.67;;;;;;;20.97;100.00;98862.75;4933683;29;20244;-65
2022/08/25 02:34:10;;;;;;;9.10;4.33;;;;;;;20.95;100.00;98859.53;4933725;29;20234;-66
2022/08/25 02:36:38;;;;;;;8.53;4.97;;;;;;;20.91;100.00;98864.28;4933389;29;20226;-66
2022/08/25 02:39:07;;;;;;;8.87;4.30;;;;;;;20.86;100.00;98858.84;4933556;29;20213;-66
2022/08/25 02:41:34;;;;;;;9.40;5.23;;;;;;;20.80;100.00;98864.78;4933454;29;20225;-65
2022/08/25 02:44:02;;;;;;;8.63;4.30;;;;;;;20.75;100.00;98869.69;4933501;29;20213;-65
2022/08/25 02:46:31;;;;;;;7.53;4.83;;;;;;;20.75;100.00;98857.50;4933257;29;20225;-65
2022/08/25 02:48:58;;;;;;;8.93;4.70;;;;;;;20.74;100.00;98870.66;4933223;29;20341;-65
2022/08/25 02:51:27;;;;;;;9.57;5.10;;;;;;;20.75;100.00;98861.91;4933252;29;20229;-65
2022/08/25 02:53:55;;;;;;;8.73;5.10;;;;;;;20.76;100.00;98858.31;4933121;29;20778;-65
2022/08/25 02:56:21;;;;;;;12.17;4.67;;;;;;;20.77;100.00;98865.94;4932891;29;20732;-65
2022/08/25 02:58:48;;;;;;;8.07;5.17;;;;;;;20.76;100.00;98873.91;4933123;29;20212;-65
2022/08/25 03:01:16;;;;;;;9.33;4.60;;;;;;;20.71;100.00;98869.28;4933266;29;20734;-66
2022/08/25 03:03:46;;;;;;;8.40;5.10;;;;;;;20.60;100.00;98882.72;4933034;29;20212;-65
2022/08/25 03:06:15;;;;;;;8.97;4.90;;;;;;;20.63;100.00;98884.16;4932626;29;20236;-66
2022/08/25 03:08:43;;;;;;;9.40;5.27;;;;;;;20.67;100.00;98880.19;4932717;29;20243;-66
2022/08/25 03:11:10;;;;;;;6.80;4.53;;;;;;;20.66;100.00;98888.97;4933005;29;20725;-65
2022/08/25 03:13:38;;;;;;;9.90;4.77;;;;;;;20.67;100.00;98887.97;4932680;29;20216;-65
2022/08/25 03:16:06;;;;;;;9.80;5.20;;;;;;;20.67;100.00;98890.59;4932492;29;20244;-65
2022/08/25 03:18:33;;;;;;;7.30;4.73;;;;;;;20.65;100.00;98887.34;4932541;29;20204;-66
2022/08/25 03:21:03;;;;;;;9.23;5.13;;;;;;;20.64;100.00;98891.75;4932668;29;20230;-65
2022/08/25 03:23:29;;;;;;;9.70;4.70;;;;;;;20.57;100.00;98891.66;4932503;29;20280;-65
2022/08/25 03:28:41;;;;;;;9.90;5.13;;;;;;;20.62;100.00;98892.91;4932913;29;20303;-65
2022/08/25 03:31:08;;;;;;;6.33;4.37;;;;;;;20.64;100.00;98890.94;4932274;29;20224;-64
2022/08/25 03:33:37;;;;;;;12.23;5.03;;;;;;;20.66;100.00;98888.97;4932653;29;20214;-65
2022/08/25 03:36:06;;;;;;;11.00;5.03;;;;;;;20.66;100.00;98886.38;4932348;29;20285;-65
2022/08/25 03:38:33;;;;;;;8.13;4.93;;;;;;;20.62;100.00;98887.72;4932299;29;20214;-65
2022/08/25 03:41:00;;;;;;;8.37;5.00;;;;;;;20.65;100.00;98887.34;4932757;29;20248;-58
2022/08/25 03:43:27;;;;;;;9.83;4.87;;;;;;;20.62;100.00;98888.50;4932162;29;20213;-58
2022/08/25 03:45:54;;;;;;;9.83;5.33;;;;;;;20.65;100.00;98887.34;4932220;29;20710;-65
2022/08/25 03:48:21;;;;;;;8.47;5.23;;;;;;;20.66;100.00;98894.19;4932028;29;20205;-65
2022/08/25 03:50:53;;;;;;;10.20;4.77;;;;;;;20.68;100.00;98894.78;4932145;29;20315;-65
2022/08/25 03:53:21;;;;;;;9.30;5.13;;;;;;;20.69;100.00;98893.81;4932402;29;20238;-65
2022/08/25 03:55:48;;;;;;;7.03;4.67;;;;;;;20.71;100.00;98897.03;4932216;29;20236;-64
2022/08/25 03:58:16;;;;;;;9.50;5.30;;;;;;;20.67;100.00;98895.78;4932016;29;20209;-65
2022/08/25 04:00:43;;;;;;;8.67;4.73;;;;;;;20.70;100.00;98898.00;4932526;29;20234;-65
2022/08/25 04:03:10;;;;;;;8.90;4.80;;;;;;;20.75;100.00;98898.28;4932103;29;20197;-65
2022/08/25 04:05:37;;;;;;;11.30;4.73;;;;;;;20.75;100.00;98888.69;4932098;29;20235;-65
2022/08/25 04:08:05;;;;;;;9.33;4.73;;;;;;;20.81;100.00;98889.75;4931912;29;20209;-65
2022/08/25 04:10:34;;;;;;;7.67;4.43;;;;;;;20.86;100.00;98895.22;4932223;29;20253;-65
2022/08/25 04:13:00;;;;;;;7.63;4.43;;;;;;;20.92;100.00;98889.31;4931900;29;20699;-66
2022/08/25 04:15:27;;;;;;;7.43;4.20;;;;;;;20.97;100.00;98891.34;4932163;29;20234;-65
2022/08/25 04:17:54;;;;;;;7.77;3.87;;;;;;;21.00;100.00;98886.59;4932203;29;20212;-66
2022/08/25 04:20:21;;;;;;;7.10;4.17;;;;;;;21.07;100.00;98891.06;4932136;29;20241;-66
2022/08/25 04:22:48;;;;;;;8.57;4.23;;;;;;;21.13;100.00;98893.72;4931863;29;20700;-66
2022/08/25 04:25:15;;;;;;;9.30;4.00;;;;;;;21.18;100.00;98896.59;4931735;29;20237;-65
2022/08/25 04:27:43;;;;;;;7.73;4.50;;;;;;;21.25;100.00;98894.06;4932099;29;20202;-65
2022/08/25 04:30:11;;;;;;;6.60;3.93;;;;;;;21.27;100.00;98897.28;4931809;29;20238;-65
2022/08/25 04:32:38;;;;;;;9.67;4.27;;;;;;;21.35;100.00;98897.16;4931972;29;20202;-58
2022/08/25 04:35:06;;;;;;;7.37;4.33;;;;;;;21.41;100.00;98899.06;4931656;29;20230;-57
2022/08/25 04:37:33;;;;;;;5.60;3.83;;;;;;;21.40;100.00;98892.22;4931604;29;20211;-57
2022/08/25 04:40:00;;;;;;;7.00;3.77;;;;;;;21.42;100.00;98892.84;4931983;29;20223;-57
2022/08/25 04:42:27;;;;;;;8.40;4.10;;;;;;;21.37;100.00;98884.78;4931742;29;20207;-57
2022/08/25 04:44:55;;;;;;;6.57;4.00;;;;;;;21.50;100.00;98891.13;4932035;29;20250;-57
2022/08/25 04:47:23;;;;;;;11.60;4.27;;;;;;;21.56;100.00;98893.00;4931703;29;20214;-65
2022/08/25 04:49:49;;;;;;;7.87;3.80;;;;;;;21.64;100.00;98887.63;4931559;29;20254;-65
2022/08/25 04:52:16;;;;;;;7.37;4.23;;;;;;;21.77;100.00;98892.97;4931615;29;20696;-58
2022/08/25 04:54:43;;;;;;;8.87;4.90;;;;;;;21.79;100.00;98891.00;4932816;29;20215;-57
2022/08/25 04:57:10;;;;;;;10.60;4.17;;;;;;;21.87;99.75;98892.63;4935197;29;20199;-65
2022/08/25 04:59:37;;;;;;;10.65;4.90;;;;;;;22.16;99.28;98896.84;4935369;29;20204;-66
2022/08/25 05:02:06;;;;;;;11.40;5.53;;;;;;;22.31;97.78;98905.44;4935166;29;20207;-65
2022/08/25 05:04:35;;;;;;;12.38;5.07;;;;;;;22.32;98.54;98901.81;4935185;29;20215;-66
2022/08/25 05:07:02;;;;;;;14.35;6.93;;;;;;;22.24;98.14;98903.75;4935368;29;20673;-66
2022/08/25 05:09:29;;;;;;;13.45;5.78;;;;;;;22.29;97.80;98912.63;4935042;29;20231;-66
2022/08/25 05:11:58;;;;;;;12.70;5.50;;;;;;;22.32;97.26;98901.00;4935223;29;20212;-66
2022/08/25 05:14:25;;;;;;;9.05;5.07;;;;;;;22.37;97.58;98896.84;4935032;29;20692;-65
2022/08/25 05:16:52;;;;;;;10.20;4.60;;;;;;;22.40;97.38;98902.63;4934811;29;20238;-66
2022/08/25 05:19:20;;;;;;;8.48;4.25;;;;;;;22.46;95.50;98902.69;4934863;29;20215;-65
2022/08/25 05:21:47;;;;;;;7.55;4.60;;;;;;;22.46;96.11;98901.91;4934697;29;20223;-66
2022/08/25 05:24:14;;;;;;;7.97;4.25;;;;;;;22.58;96.03;98910.78;4934544;29;20215;-66
2022/08/25 05:26:40;;;;;;;5.75;3.72;;;;;;;22.68;96.31;98913.81;4934975;29;20219;-66
2022/08/25 05:29:09;;;;;;;8.43;4.30;;;;;;;22.76;95.17;98911.06;4934651;29;20222;-66
2022/08/25 05:31:36;;;;;;;10.85;4.32;;;;;;;22.71;93.88;98916.03;4934670;29;20242;-66
2022/08/25 05:34:06;;;;;;;7.72;4.60;;;;;;;22.70;92.62;98914.44;4934417;29;20218;-66
2022/08/25 05:36:35;;;;;;;8.10;3.92;;;;;;;23.01;93.68;98911.41;4934626;29;20263;-63
2022/08/25 05:39:02;;;;;;;9.43;4.53;;;;;;;23.17;92.66;98914.66;4934380;29;20207;-66
2022/08/25 05:41:30;;;;;;;8.82;3.72;;;;;;;23.55;93.24;98922.75;4934527;29;20314;-66
2022/08/25 05:43:57;;;;;;;8.57;3.80;;;;;;;23.68;88.41;98922.78;4934760;29;20203;-66
2022/08/25 05:46:25;;;;;;;4.80;2.95;;;;;;;23.73;87.21;98920.41;4934452;29;20313;-66
2022/08/25 05:48:53;;;;;;;5.72;3.22;;;;;;;24.06;83.71;98924.84;4934241;29;20200;-67
2022/08/25 05:51:20;;;;;;;5.88;2.90;;;;;;;24.28;84.12;98935.06;4934125;29;20254;-67
2022/08/25 05:53:50;;;;;;;6.43;3.33;;;;;;;24.50;86.96;98933.84;4934227;29;20200;-67
2022/08/25 05:56:17;;;;;;;6.63;3.00;;;;;;;24.66;78.24;98931.78;4934692;29;20231;-67
2022/08/25 05:58:45;;;;;;;3.72;2.28;;;;;;;24.81;77.53;98927.09;4934140;29;20204;-58
2022/08/25 06:04:09;;;;;;;5.15;2.70;;;;;;;25.10;73.37;98935.44;4934043;29;20214;-58
2022/08/25 06:06:36;;;;;;;4.50;2.42;;;;;;;25.16;72.03;98934.63;4933554;29;20231;-58
2022/08/25 06:09:07;;;;;;;5.25;2.70;;;;;;;25.24;71.29;98932.56;4934049;29;20199;-67
2022/08/25 06:11:34;;;;;;;4.03;2.30;;;;;;;25.38;68.87;98922.03;4934124;29;20227;-66
2022/08/25 06:14:01;;;;;;;6.03;2.53;;;;;;;25.57;70.98;98926.34;4933750;29;20207;-66
2022/08/25 06:16:28;;;;;;;9.57;2.40;;;;;;;25.69;66.43;98923.84;4934078;29;20239;-65
2022/08/25 06:18:55;;;;;;;5.10;2.67;;;;;;;25.75;65.19;98933.47;4933748;29;20208;-58
2022/08/25 06:21:22;;;;;;;5.65;2.63;;;;;;;25.80;63.43;98931.00;4933551;29;20231;-58
2022/08/25 06:23:49;;;;;;;13.02;2.45;;;;;;;25.89;64.06;98928.94;4933700;29;20211;-66
2022/08/25 06:26:17;;;;;;;3.90;2.35;;;;;;;26.04;61.31;98936.50;4933463;29;20275;-58
2022/08/25 06:28:44;;;;;;;4.25;2.28;;;;;;;25.95;60.98;98928.91;4933702;29;20681;-58
2022/08/25 06:31:10;;;;;;;3.45;1.90;;;;;;;26.09;61.33;98931.41;4933752;29;20243;-58
2022/08/25 06:33:37;;;;;;;5.05;2.50;;;;;;;26.30;62.54;98920.53;4933409;29;20662;-66
2022/08/25 06:36:05;;;;;;;3.35;2.30;;;;;;;26.49;62.25;98926.59;4933464;29;20227;-58
2022/08/25 06:38:32;;;;;;;5.55;2.50;;;;;;;26.65;61.83;98933.13;4933495;29;20299;-58
2022/08/25 06:41:02;;;;;;;3.88;2.10;;;;;;;26.72;59.75;98931.19;4933458;29;20234;-58
2022/08/25 06:43:31;;;;;;;3.47;2.30;;;;;;;26.82;59.39;98934.13;4933270;29;20203;-58
2022/08/25 06:45:58;;;;;;;4.50;2.30;;;;;;;26.85;58.11;98928.44;4933739;29;20224;-58
2022/08/25 06:48:25;;;;;;;6.10;2.47;;;;;;;26.95;58.61;98934.97;4933144;29;20733;-65
2022/08/25 06:50:52;;;;;;;6.15;2.70;;;;;;;27.01;58.79;98936.72;4933141;29;20235;-66
2022/08/25 06:53:19;;;;;;;3.92;2.30;;;;;;;27.15;58.58;98932.94;4933102;29;20211;-66
2022/08/25 06:55:55;;;;;;;5.00;2.20;;;;;;;27.37;57.87;98935.84;4932983;29;20615;-66
2022/08/25 06:58:22;;;;;;;3.13;2.20;;;;;;;27.52;56.37;98943.34;4932950;29;20681;-57
2022/08/25 07:00:50;;;;;;;3.60;2.13;;;;;;;27.75;59.41;98935.50;4933039;29;20223;-58
2022/08/25 07:03:17;;;;;;;4.38;2.13;;;;;;;27.85;55.66;98936.81;4932829;29;20669;-58
2022/08/25 07:05:51;;;;;;;3.40;2.25;;;;;;;27.82;56.77;98934.63;4933044;29;20231;-65
2022/08/25 07:08:18;;;;;;;4.85;2.22;;;;;;;27.85;54.16;98934.16;4932934;29;20203;-66
2022/08/25 07:10:44;;;;;;;4.07;2.60;;;;;;;27.89;55.15;98933.47;4932782;29;20243;-65
2022/08/25 07:13:11;;;;;;;5.70;2.28;;;;;;;27.90;53.29;98935.09;4932949;29;20200;-65
2022/08/25 07:15:38;;;;;;;8.10;2.40;;;;;;;27.84;50.92;98933.38;4932950;29;20227;-65
2022/08/25 07:18:07;;;;;;;5.72;2.40;;;;;;;27.91;51.11;98935.88;4932438;29;20231;-66
2022/08/25 07:20:35;;;;;;;3.63;2.13;;;;;;;28.02;56.01;98924.59;4932812;29;20234;-66
2022/08/25 07:23:02;;;;;;;3.15;2.25;;;;;;;28.19;50.90;98928.13;4932518;29;20211;-66
2022/08/25 07:25:29;;;;;;;5.07;2.38;;;;;;;28.14;51.81;98925.38;4932810;29;20230;-65
2022/08/25 07:27:56;;;;;;;3.92;2.30;;;;;;;28.30;51.67;98918.63;4932360;29;20700;-58
2022/08/25 07:30:23;;;;;;;4.25;2.10;;;;;;;28.43;50.74;98922.88;4932316;29;20247;-65
2022/08/25 07:32:50;;;;;;;6.28;2.40;;;;;;;28.77;53.87;98923.03;4932576;29;20204;-65
2022/08/25 07:35:19;;;;;;;4.43;2.50;;;;;;;28.90;48.31;98928.03;4932628;29;20688;-66
2022/08/25 07:37:48;;;;;;;4.57;2.25;;;;;;;29.05;50.18;98923.06;4932396;29;20211;-65
2022/08/25 07:40:17;;;;;;;5.72;2.58;;;;;;;29.04;52.99;98913.59;4932598;29;20254;-57
2022/08/25 07:42:44;;;;;;;4.82;2.20;;;;;;;29.23;47.49;98921.28;4932380;29;20287;-57
2022/08/25 07:45:12;;;;;;;7.28;2.53;;;;;;;29.36;48.85;98910.47;4932361;29;20254;-58
2022/08/25 07:47:40;;;;;;;3.20;2.22;;;;;;;29.46;46.73;98915.88;4932952;29;20200;-65
2022/08/25 07:50:10;;;;;;;5.40;2.00;;;;;;;29.56;45.70;98910.00;4932245;29;20235;-66
2022/08/25 07:52:39;;;;;;;2.47;1.90;;;;;;;29.60;44.30;98903.22;4932370;29;20654;-65
2022/08/25 07:55:07;;;;;;;4.28;2.03;;;;;;;29.69;43.62;98906.28;4932240;29;20231;-65
2022/08/25 07:57:34;;;;;;;4.65;2.15;;;;;;;29.56;43.56;98905.53;4932264;29;20199;-66
2022/08/25 08:00:00;;;;;;;4.20;1.95;;;;;;;29.48;44.72;98908.56;4932138;29;20227;-65
2022/08/25 08:02:27;;;;;;;3.90;2.00;;;;;;;29.53;43.21;98892.84;4932119;29;20211;-66
2022/08/25 08:04:54;;;;;;;4.30;1.80;;;;;;;29.60;45.49;98911.13;4932324;29;20231;-66
2022/08/25 08:07:24;;;;;;;4.82;2.25;;;;;;;29.74;44.45;98901.09;4932070;29;20207;-65
2022/08/25 08:09:54;;;;;;;4.53;1.98;;;;;;;29.82;41.88;98902.50;4931873;29;20227;-65
2022/08/25 08:12:21;;;;;;;5.13;1.67;;;;;;;29.91;40.67;98896.59;4932052;29;20569;-66
2022/08/25 08:14:48;;;;;;;3.75;1.70;;;;;;;29.94;42.92;98905.88;4931877;29;20287;-65
2022/08/25 08:17:15;;;;;;;6.35;2.00;;;;;;;29.62;41.19;98895.06;4932087;29;20698;-65
2022/08/25 08:19:42;;;;;;;4.18;1.63;;;;;;;29.66;40.58;98904.13;4931960;29;20200;-66
2022/08/25 08:22:10;;;;;;;3.90;1.90;;;;;;;29.80;40.84;98905.41;4932351;29;20202;-66
2022/08/25 08:24:38;;;;;;;4.13;1.98;;;;;;;29.48;40.44;98903.28;4932069;29;20255;-67
2022/08/25 08:27:07;;;;;;;3.28;1.80;;;;;;;29.36;41.67;98905.19;4931952;29;20262;-58
2022/08/25 08:29:34;;;;;;;4.82;2.33;;;;;;;29.27;42.34;98906.63;4934392;29;20267;-58
2022/08/25 08:32:02;;;;;;;4.05;1.80;;;;;;;29.36;40.98;98899.94;4935805;29;20257;-57
2022/08/25 08:34:29;;;;;;;3.97;2.20;;;;;;;29.36;42.20;98899.94;4935615;29;20211;-57
2022/08/25 08:36:56;;;;;;;4.47;2.10;;;;;;;29.76;42.90;98893.75;4935723;29;20207;-58
2022/08/25 08:39:23;;;;;;;4.15;1.95;;;;;;;30.13;42.86;98899.28;4935476;29;20206;-58
2022/08/25 08:42:18;;;;;;;6.68;2.00;;;;;;;29.97;42.52;98895.63;4935555;29;20234;-58
2022/08/25 08:45:25;;;;;;;3.15;2.17;;;;;;;29.84;43.69;98901.22;4935589;29;20585;-57
2022/08/25 08:48:24;;;;;;;4.18;2.00;;;;;;;30.21;41.79;98900.72;4915534;29;20284;-65
2022/08/25 08:51:01;;;;;;;4.07;2.00;;;;;;;30.07;40.85;98888.91;4927031;29;20250;-65
2022/08/25 08:53:36;;;;;;;5.15;2.25;;;;;;;30.21;42.80;98890.19;4935573;29;20657;-66
2022/08/25 08:56:09;;;;;;;2.70;1.77;;;;;;;30.40;42.49;98898.63;4935180;29;20231;-66
2022/08/25 08:58:42;;;;;;;5.15;1.98;;;;;;;30.47;41.98;98898.44;4935597;29;20204;-66
2022/08/25 09:01:12;;;;;;;5.38;1.75;;;;;;;30.66;42.55;98891.78;4935341;29;20229;-66
2022/08/25 09:03:42;;;;;;;5.50;1.92;;;;;;;30.73;41.72;98889.75;4935243;29;20203;-66
2022/08/25 09:06:13;;;;;;;4.95;2.03;;;;;;;30.76;40.81;98893.75;4934994;29;20242;-66
2022/08/25 09:08:43;;;;;;;4.35;2.00;;;;;;;30.93;41.32;98893.69;4935255;29;20204;-65
2022/08/25 09:11:21;;;;;;;2.25;1.77;;;;;;;31.13;41.68;98888.63;4934892;29;20286;-65
2022/08/25 09:14:05;;;;;;;4.22;2.20;;;;;;;31.49;41.15;98888.94;4935103;29;20215;-66
2022/08/25 09:16:57;;;;;;;4.38;2.25;;;;;;;31.53;41.21;98879.44;4934933;29;20712;-58
2022/08/25 09:20:14;;;;;;;4.20;1.70;;;;;;;31.43;39.81;98895.25;4935153;29;20239;-58
2022/08/25 09:22:52;;;;;;;5.18;2.22;;;;;;;30.98;39.99;98888.44;4894258;29;20208;-57
2022/08/25 09:25:24;;;;;;;2.85;1.90;;;;;;;30.94;42.50;98887.38;4894404;29;20420;-57
2022/08/25 09:28:02;;;;;;;3.88;2.08;;;;;;;30.99;43.32;98869.72;4921373;29;20665;-57
2022/08/25 09:30:35;;;;;;;4.13;1.92;;;;;;;30.95;42.81;98873.09;4934559;29;20243;-59
2022/08/25 09:33:04;;;;;;;2.92;2.05;;;;;;;31.28;39.43;98877.38;4934703;29;20203;-57
2022/08/25 09:35:33;;;;;;;3.67;2.00;;;;;;;31.29;41.40;98886.91;4935021;29;20227;-57
2022/08/25 09:38:03;;;;;;;2.67;1.98;;;;;;;30.99;42.10;98874.22;4934636;29;20199;-66
2022/08/25 09:40:32;;;;;;;2.65;2.00;;;;;;;30.67;43.16;98882.84;4934157;29;20224;-66
2022/08/25 09:43:01;;;;;;;3.72;1.95;;;;;;;30.54;45.54;98877.91;4934672;29;20241;-66
2022/08/25 09:45:42;;;;;;;2.72;1.90;;;;;;;30.25;45.76;98879.94;4934559;29;20258;-58
2022/08/25 09:48:27;;;;;;;2.42;1.73;;;;;;;29.86;42.92;98870.16;4934473;29;20454;-58
2022/08/25 09:50:59;;;;;;;4.07;2.10;;;;;;;29.96;45.51;98858.97;4934357;29;20323;-58
2022/08/25 09:53:27;;;;;;;6.50;2.08;;;;;;;30.37;45.20;98856.88;4934242;29;20199;-58
2022/08/25 09:56:00;;;;;;;4.00;1.77;;;;;;;30.59;42.73;98855.03;4934258;29;20227;-58
2022/08/25 09:58:26;;;;;;;6.70;2.08;;;;;;;30.79;44.34;98849.19;4934172;29;20784;-57
2022/08/25 10:01:13;;;;;;;3.70;2.10;;;;;;;30.81;42.00;98844.47;4934080;29;20231;-58
2022/08/25 10:03:57;;;;;;;3.75;1.95;;;;;;;30.94;42.04;98851.19;4934108;29;20215;-58
2022/08/25 10:06:25;;;;;;;3.35;2.00;;;;;;;31.12;41.42;98842.09;4934469;29;20253;-58
2022/08/25 10:08:57;;;;;;;3.55;2.30;;;;;;;31.21;40.58;98840.59;4934163;29;20292;-58
2022/08/25 10:11:40;;;;;;;3.55;1.88;;;;;;;31.47;42.87;98843.47;4934057;29;20246;-58
2022/08/25 10:14:17;;;;;;;6.28;2.20;;;;;;;31.50;39.75;98840.31;4933658;29;20223;-58
2022/08/25 10:16:45;;;;;;;2.28;1.80;;;;;;;31.65;40.47;98842.25;4934112;29;20231;-57
2022/08/25 10:19:24;;;;;;;4.30;1.95;;;;;;;31.70;41.33;98844.94;4933942;29;20199;-58
2022/08/25 10:22:04;;;;;;;7.75;2.28;;;;;;;31.82;41.62;98844.75;4933842;29;20227;-57
2022/08/25 10:24:31;;;;;;;2.85;2.00;;;;;;;32.02;41.53;98843.03;4933708;29;20204;-58
2022/08/25 10:27:05;;;;;;;4.93;1.70;;;;;;;32.15;41.43;98838.34;4933945;29;20208;-57
2022/08/25 10:29:52;;;;;;;4.13;1.95;;;;;;;32.31;42.01;98836.56;4933662;29;20593;-58
2022/08/25 10:32:25;;;;;;;3.83;2.03;;;;;;;32.35;40.62;98838.44;4933361;29;20799;-57
2022/08/25 10:34:56;;;;;;;3.85;2.05;;;;;;;32.39;37.52;98838.72;4933453;29;20757;-57
2022/08/25 10:37:35;;;;;;;3.17;2.05;;;;;;;32.51;40.17;98834.00;4933688;29;20435;-58
2022/08/25 10:40:12;;;;;;;4.13;2.45;;;;;;;32.12;37.28;98818.50;4933625;29;20235;-58
2022/08/25 10:42:45;;;;;;;3.83;2.20;;;;;;;32.31;39.30;98825.97;4933653;29;20203;-58
2022/08/25 10:48:22;;;;;;;2.55;1.90;;;;;;;32.33;40.19;98819.38;4933282;29;20214;-58
2022/08/25 10:50:56;;;;;;;3.58;2.28;;;;;;;32.70;40.82;98826.38;4933103;29;20317;-57
2022/08/25 10:53:35;;;;;;;4.03;2.20;;;;;;;32.85;37.76;98820.31;4932146;29;20577;-57
2022/08/25 10:56:11;;;;;;;3.45;2.05;;;;;;;33.03;39.15;98817.16;4933337;29;20227;-58
2022/08/25 10:59:07;;;;;;;3.63;2.00;;;;;;;33.04;38.48;98813.47;4933065;29;20204;-57
2022/08/25 11:01:45;;;;;;;3.08;1.85;;;;;;;32.85;37.08;98805.22;4930752;29;20234;-58
2022/08/25 11:04:19;;;;;;;4.50;1.95;;;;;;;32.73;38.24;98802.03;4932960;29;20238;-58
2022/08/25 11:06:54;;;;;;;4.72;2.15;;;;;;;33.01;37.79;98797.31;4932923;29;20238;-58
2022/08/25 11:09:25;;;;;;;3.85;1.83;;;;;;;33.10;37.37;98791.22;4932885;29;20207;-58
2022/08/25 11:11:57;;;;;;;6.75;2.22;;;;;;;33.05;37.41;98795.72;4932912;29;20239;-65
2022/08/25 11:14:29;;;;;;;2.95;2.10;;;;;;;33.16;37.45;98792.00;4932881;29;20217;-57
2022/08/25 11:17:02;;;;;;;3.80;2.30;;;;;;;33.49;36.25;98793.28;4932928;29;20693;-65
2022/08/25 11:19:33;;;;;;;3.92;2.20;;;;;;;33.28;36.63;98783.75;4932720;29;20207;-65
2022/08/25 11:22:09;;;;;;;4.97;2.30;;;;;;;33.11;35.63;98787.50;4932775;29;20211;-65
2022/08/25 11:24:52;;;;;;;3.45;2.00;;;;;;;33.07;36.36;98780.34;4932701;29;20226;-65
2022/08/25 11:27:22;;;;;;;2.58;1.60;;;;;;;32.87;36.40;98778.47;4932438;29;20207;-66
2022/08/25 11:30:00;;;;;;;5.47;2.20;;;;;;;32.84;36.87;98781.63;4932772;29;20729;-65
2022/08/25 11:32:32;;;;;;;4.82;2.20;;;;;;;32.55;36.12;98776.88;4932618;29;20239;-65
2022/08/25 11:35:02;;;;;;;4.45;2.25;;;;;;;32.76;37.37;98779.53;4932569;29;20223;-66
2022/08/25 11:37:32;;;;;;;3.38;2.10;;;;;;;32.47;34.23;98772.06;4932563;29;20199;-65
2022/08/25 11:40:12;;;;;;;4.82;1.85;;;;;;;32.79;36.89;98763.13;4932300;29;20659;-58
2022/08/25 11:42:52;;;;;;;4.75;1.95;;;;;;;32.94;36.33;98757.81;4932587;29;20230;-57
2022/08/25 11:45:39;;;;;;;2.38;1.65;;;;;;;33.13;36.92;98758.91;4932252;29;20633;-58
2022/08/25 11:48:17;;;;;;;6.25;2.20;;;;;;;33.06;34.90;98753.06;4932276;29;20203;-58
2022/08/25 11:51:03;;;;;;;3.88;2.10;;;;;;;33.13;36.33;98753.59;4932722;29;20223;-57